Aviation Digital Data Service (ADDS)

Output produced by METARs form (2346 UTC 15 February 2019)
found at http://www.aviationweather.gov/metar/data/
 
METAR text: TFFF 152330Z AUTO 10006KT 9999 FEW022 OVC060 25/23 Q1016 NOSIG
Conditions at: TFFF (LE LAMENTIN/MART, MQ) observed 2330 UTC 15 February 2019
Temperature: 25.0°C (77°F)
Dewpoint: 23.0°C (73°F) [RH = 89%]
Pressure (altimeter): 30.00 inches Hg (1016.0 mb)
Winds: from the E (100 degrees) at 7 MPH (6 knots; 3.1 m/s)
Visibility: 6 or more miles (10+ km)
Ceiling: 6000 feet AGL
Clouds: few clouds at 2200 feet AGL
overcast cloud deck at 6000 feet AGL
Weather: no significant weather observed at this time

METAR text: TFFF 152300Z AUTO 12005KT 9999 FEW027 OVC058 26/22 Q1015 NOSIG
Conditions at: TFFF (LE LAMENTIN/MART, MQ) observed 2300 UTC 15 February 2019
Temperature: 26.0°C (79°F)
Dewpoint: 22.0°C (72°F) [RH = 79%]
Pressure (altimeter): 29.97 inches Hg (1015.0 mb)
Winds: from the ESE (120 degrees) at 6 MPH (5 knots; 2.6 m/s)
Visibility: 6 or more miles (10+ km)
Ceiling: 5800 feet AGL
Clouds: few clouds at 2700 feet AGL
overcast cloud deck at 5800 feet AGL
Weather: no significant weather observed at this time

METAR text: TFFF 152230Z AUTO 13009KT 9999 BKN050 OVC060 26/21 Q1015 NOSIG
Conditions at: TFFF (LE LAMENTIN/MART, MQ) observed 2230 UTC 15 February 2019
Temperature: 26.0°C (79°F)
Dewpoint: 21.0°C (70°F) [RH = 74%]
Pressure (altimeter): 29.97 inches Hg (1015.0 mb)
Winds: from the SE (130 degrees) at 10 MPH (9 knots; 4.6 m/s)
Visibility: 6 or more miles (10+ km)
Ceiling: 5000 feet AGL
Clouds: broken clouds at 5000 feet AGL
overcast cloud deck at 6000 feet AGL
Weather: no significant weather observed at this time

METAR text: TFFF 152200Z AUTO 13007KT 9999 BKN047 BKN062 27/21 Q1015 NOSIG
Conditions at: TFFF (LE LAMENTIN/MART, MQ) observed 2200 UTC 15 February 2019
Temperature: 27.0°C (81°F)
Dewpoint: 21.0°C (70°F) [RH = 70%]
Pressure (altimeter): 29.97 inches Hg (1015.0 mb)
Winds: from the SE (130 degrees) at 8 MPH (7 knots; 3.6 m/s)
Visibility: 6 or more miles (10+ km)
Ceiling: 4700 feet AGL
Clouds: broken clouds at 4700 feet AGL
broken clouds at 6200 feet AGL
Weather: no significant weather observed at this time

METAR text: TFFF 152130Z AUTO 14010KT 110V170 9999 FEW030 SCT050 BKN062 27/20 Q1015 NOSIG
Conditions at: TFFF (LE LAMENTIN/MART, MQ) observed 2130 UTC 15 February 2019
Temperature: 27.0°C (81°F)
Dewpoint: 20.0°C (68°F) [RH = 66%]
Pressure (altimeter): 29.97 inches Hg (1015.0 mb)
Winds: from the SE (140 degrees) at 12 MPH (10 knots; 5.1 m/s)
Visibility: 6 or more miles (10+ km)
Ceiling: 6200 feet AGL
Clouds: few clouds at 3000 feet AGL
scattered clouds at 5000 feet AGL
broken clouds at 6200 feet AGL
Weather: no significant weather observed at this time

METAR text: TFFF 152100Z AUTO 13011KT 9999 FEW031 SCT048 OVC058 27/21 Q1015 NOSIG
Conditions at: TFFF (LE LAMENTIN/MART, MQ) observed 2100 UTC 15 February 2019
Temperature: 27.0°C (81°F)
Dewpoint: 21.0°C (70°F) [RH = 70%]
Pressure (altimeter): 29.97 inches Hg (1015.0 mb)
Winds: from the SE (130 degrees) at 13 MPH (11 knots; 5.7 m/s)
Visibility: 6 or more miles (10+ km)
Ceiling: 5800 feet AGL
Clouds: few clouds at 3100 feet AGL
scattered clouds at 4800 feet AGL
overcast cloud deck at 5800 feet AGL
Weather: no significant weather observed at this time

METAR text: TFFF 152030Z AUTO 13012KT 9999 FEW032 OVC056 28/21 Q1015 NOSIG
Conditions at: TFFF (LE LAMENTIN/MART, MQ) observed 2030 UTC 15 February 2019
Temperature: 28.0°C (82°F)
Dewpoint: 21.0°C (70°F) [RH = 66%]
Pressure (altimeter): 29.97 inches Hg (1015.0 mb)
Winds: from the SE (130 degrees) at 14 MPH (12 knots; 6.2 m/s)
Visibility: 6 or more miles (10+ km)
Ceiling: 5600 feet AGL
Clouds: few clouds at 3200 feet AGL
overcast cloud deck at 5600 feet AGL
Weather: no significant weather observed at this time

METAR text: TFFF 152000Z AUTO 13013KT 9999 FEW032 BKN058 29/21 Q1015 NOSIG
Conditions at: TFFF (LE LAMENTIN/MART, MQ) observed 2000 UTC 15 February 2019
Temperature: 29.0°C (84°F)
Dewpoint: 21.0°C (70°F) [RH = 62%]
Pressure (altimeter): 29.97 inches Hg (1015.0 mb)
Winds: from the SE (130 degrees) at 15 MPH (13 knots; 6.7 m/s)
Visibility: 6 or more miles (10+ km)
Ceiling: 5800 feet AGL
Clouds: few clouds at 3200 feet AGL
broken clouds at 5800 feet AGL
Weather: no significant weather observed at this time

METAR text: TFFF 151930Z AUTO 13014KT 9999 FEW035 BKN058 29/21 Q1015 NOSIG
Conditions at: TFFF (LE LAMENTIN/MART, MQ) observed 1930 UTC 15 February 2019
Temperature: 29.0°C (84°F)
Dewpoint: 21.0°C (70°F) [RH = 62%]
Pressure (altimeter): 29.97 inches Hg (1015.0 mb)
Winds: from the SE (130 degrees) at 16 MPH (14 knots; 7.2 m/s)
Visibility: 6 or more miles (10+ km)
Ceiling: 5800 feet AGL
Clouds: few clouds at 3500 feet AGL
broken clouds at 5800 feet AGL
Weather: no significant weather observed at this time

METAR text: TFFF 151900Z AUTO 13013KT 9999 SCT033 BKN052 BKN062 30/21 Q1015 NOSIG
Conditions at: TFFF (LE LAMENTIN/MART, MQ) observed 1900 UTC 15 February 2019
Temperature: 30.0°C (86°F)
Dewpoint: 21.0°C (70°F) [RH = 59%]
Pressure (altimeter): 29.97 inches Hg (1015.0 mb)
Winds: from the SE (130 degrees) at 15 MPH (13 knots; 6.7 m/s)
Visibility: 6 or more miles (10+ km)
Ceiling: 5200 feet AGL
Clouds: scattered clouds at 3300 feet AGL
broken clouds at 5200 feet AGL
broken clouds at 6200 feet AGL
Weather: no significant weather observed at this time

METAR text: TFFF 151830Z AUTO 12014KT 9999 FEW038 SCT046 BKN060 30/21 Q1015 NOSIG
Conditions at: TFFF (LE LAMENTIN/MART, MQ) observed 1830 UTC 15 February 2019
Temperature: 30.0°C (86°F)
Dewpoint: 21.0°C (70°F) [RH = 59%]
Pressure (altimeter): 29.97 inches Hg (1015.0 mb)
Winds: from the ESE (120 degrees) at 16 MPH (14 knots; 7.2 m/s)
Visibility: 6 or more miles (10+ km)
Ceiling: 6000 feet AGL
Clouds: few clouds at 3800 feet AGL
scattered clouds at 4600 feet AGL
broken clouds at 6000 feet AGL
Weather: no significant weather observed at this time

METAR text: TFFF 151800Z AUTO 13013KT 100V180 9999 SCT038 SCT062 31/20 Q1015 NOSIG
Conditions at: TFFF (LE LAMENTIN/MART, MQ) observed 1800 UTC 15 February 2019
Temperature: 31.0°C (88°F)
Dewpoint: 20.0°C (68°F) [RH = 52%]
Pressure (altimeter): 29.97 inches Hg (1015.0 mb)
Winds: from the SE (130 degrees) at 15 MPH (13 knots; 6.7 m/s)
Visibility: 6 or more miles (10+ km)
Ceiling: at least 12,000 feet AGL
Clouds: scattered clouds at 3800 feet AGL
scattered clouds at 6200 feet AGL
Weather: no significant weather observed at this time

METAR text: TFFF 151730Z AUTO 13014KT 110V170 9999 FEW037 SCT062 31/21 Q1015 NOSIG
Conditions at: TFFF (LE LAMENTIN/MART, MQ) observed 1730 UTC 15 February 2019
Temperature: 31.0°C (88°F)
Dewpoint: 21.0°C (70°F) [RH = 55%]
Pressure (altimeter): 29.97 inches Hg (1015.0 mb)
Winds: from the SE (130 degrees) at 16 MPH (14 knots; 7.2 m/s)
Visibility: 6 or more miles (10+ km)
Ceiling: at least 12,000 feet AGL
Clouds: few clouds at 3700 feet AGL
scattered clouds at 6200 feet AGL
Weather: no significant weather observed at this time

METAR text: TFFF 151700Z AUTO 13014KT 100V160 9999 BKN037 BKN046 BKN064 31/21 Q1016 TEMPO 4000 SHRA SCT015TCU
Conditions at: TFFF (LE LAMENTIN/MART, MQ) observed 1700 UTC 15 February 2019
Temperature: 31.0°C (88°F)
Dewpoint: 21.0°C (70°F) [RH = 55%]
Pressure (altimeter): 30.00 inches Hg (1016.0 mb)
Winds: from the SE (130 degrees) at 16 MPH (14 knots; 7.2 m/s)
Visibility: 6 or more miles (10+ km)
Ceiling: 3700 feet AGL
Clouds: broken clouds at 3700 feet AGL
broken clouds at 4600 feet AGL
broken clouds at 6400 feet AGL
Weather: no significant weather observed at this time

METAR text: TFFF 151630Z AUTO 12014KT 100V160 9999 SCT037 BKN046 BKN062 30/20 Q1016 TEMPO 4000 SHRA SCT015TCU
Conditions at: TFFF (LE LAMENTIN/MART, MQ) observed 1630 UTC 15 February 2019
Temperature: 30.0°C (86°F)
Dewpoint: 20.0°C (68°F) [RH = 55%]
Pressure (altimeter): 30.00 inches Hg (1016.0 mb)
Winds: from the ESE (120 degrees) at 16 MPH (14 knots; 7.2 m/s)
Visibility: 6 or more miles (10+ km)
Ceiling: 4600 feet AGL
Clouds: scattered clouds at 3700 feet AGL
broken clouds at 4600 feet AGL
broken clouds at 6200 feet AGL
Weather: no significant weather observed at this time

METAR text: TFFF 151600Z AUTO 14014KT 110V170 9999 BKN037 30/20 Q1017 TEMPO 4000 SHRA SCT015TCU
Conditions at: TFFF (LE LAMENTIN/MART, MQ) observed 1600 UTC 15 February 2019
Temperature: 30.0°C (86°F)
Dewpoint: 20.0°C (68°F) [RH = 55%]
Pressure (altimeter): 30.03 inches Hg (1017.0 mb)
Winds: from the SE (140 degrees) at 16 MPH (14 knots; 7.2 m/s)
Visibility: 6 or more miles (10+ km)
Ceiling: 3700 feet AGL
Clouds: broken clouds at 3700 feet AGL
Weather: no significant weather observed at this time

METAR text: TFFF 151530Z AUTO 14014KT 110V170 9999 SCT038 29/21 Q1017 TEMPO 4000 SHRA SCT015TCU
Conditions at: TFFF (LE LAMENTIN/MART, MQ) observed 1530 UTC 15 February 2019
Temperature: 29.0°C (84°F)
Dewpoint: 21.0°C (70°F) [RH = 62%]
Pressure (altimeter): 30.03 inches Hg (1017.0 mb)
Winds: from the SE (140 degrees) at 16 MPH (14 knots; 7.2 m/s)
Visibility: 6 or more miles (10+ km)
Ceiling: at least 12,000 feet AGL
Clouds: scattered clouds at 3800 feet AGL
Weather: no significant weather observed at this time

METAR text: TFFF 151500Z AUTO 13015KT 110V170 9999 SCT034 SCT040 30/20 Q1017 TEMPO 4000 SHRA SCT015TCU
Conditions at: TFFF (LE LAMENTIN/MART, MQ) observed 1500 UTC 15 February 2019
Temperature: 30.0°C (86°F)
Dewpoint: 20.0°C (68°F) [RH = 55%]
Pressure (altimeter): 30.03 inches Hg (1017.0 mb)
Winds: from the SE (130 degrees) at 17 MPH (15 knots; 7.7 m/s)
Visibility: 6 or more miles (10+ km)
Ceiling: at least 12,000 feet AGL
Clouds: scattered clouds at 3400 feet AGL
scattered clouds at 4000 feet AGL
Weather: no significant weather observed at this time

METAR text: TFFF 151430Z AUTO 13016KT 9999 FEW035 SCT060 30/21 Q1017 TEMPO 4000 SHRA SCT015TCU
Conditions at: TFFF (LE LAMENTIN/MART, MQ) observed 1430 UTC 15 February 2019
Temperature: 30.0°C (86°F)
Dewpoint: 21.0°C (70°F) [RH = 59%]
Pressure (altimeter): 30.03 inches Hg (1017.0 mb)
Winds: from the SE (130 degrees) at 18 MPH (16 knots; 8.2 m/s)
Visibility: 6 or more miles (10+ km)
Ceiling: at least 12,000 feet AGL
Clouds: few clouds at 3500 feet AGL
scattered clouds at 6000 feet AGL
Weather: no significant weather observed at this time

METAR text: TFFF 151400Z AUTO 13015KT 9999 FEW033 29/21 Q1017 TEMPO 4000 SHRA SCT015TCU
Conditions at: TFFF (LE LAMENTIN/MART, MQ) observed 1400 UTC 15 February 2019
Temperature: 29.0°C (84°F)
Dewpoint: 21.0°C (70°F) [RH = 62%]
Pressure (altimeter): 30.03 inches Hg (1017.0 mb)
Winds: from the SE (130 degrees) at 17 MPH (15 knots; 7.7 m/s)
Visibility: 6 or more miles (10+ km)
Ceiling: at least 12,000 feet AGL
Clouds: few clouds at 3300 feet AGL
Weather: no significant weather observed at this time

METAR text: TFFF 151330Z AUTO 12014KT 9999 SCT034 29/22 Q1017 TEMPO 4000 SHRA SCT015TCU
Conditions at: TFFF (LE LAMENTIN/MART, MQ) observed 1330 UTC 15 February 2019
Temperature: 29.0°C (84°F)
Dewpoint: 22.0°C (72°F) [RH = 66%]
Pressure (altimeter): 30.03 inches Hg (1017.0 mb)
Winds: from the ESE (120 degrees) at 16 MPH (14 knots; 7.2 m/s)
Visibility: 6 or more miles (10+ km)
Ceiling: at least 12,000 feet AGL
Clouds: scattered clouds at 3400 feet AGL
Weather: no significant weather observed at this time

METAR text: TFFF 151300Z AUTO 14012KT 9999 FEW034 28/20 Q1017 TEMPO 4000 SHRA SCT015TCU
Conditions at: TFFF (LE LAMENTIN/MART, MQ) observed 1300 UTC 15 February 2019
Temperature: 28.0°C (82°F)
Dewpoint: 20.0°C (68°F) [RH = 62%]
Pressure (altimeter): 30.03 inches Hg (1017.0 mb)
Winds: from the SE (140 degrees) at 14 MPH (12 knots; 6.2 m/s)
Visibility: 6 or more miles (10+ km)
Ceiling: at least 12,000 feet AGL
Clouds: few clouds at 3400 feet AGL
Weather: no significant weather observed at this time

METAR text: TFFF 151230Z AUTO 14011KT 9999 FEW031 28/20 Q1017 TEMPO 4000 SHRA SCT015TCU
Conditions at: TFFF (LE LAMENTIN/MART, MQ) observed 1230 UTC 15 February 2019
Temperature: 28.0°C (82°F)
Dewpoint: 20.0°C (68°F) [RH = 62%]
Pressure (altimeter): 30.03 inches Hg (1017.0 mb)
Winds: from the SE (140 degrees) at 13 MPH (11 knots; 5.7 m/s)
Visibility: 6 or more miles (10+ km)
Ceiling: at least 12,000 feet AGL
Clouds: few clouds at 3100 feet AGL
Weather: no significant weather observed at this time

METAR text: TFFF 151200Z AUTO 12006KT 9999 FEW027 SCT042 27/21 Q1016 TEMPO 4000 SHRA SCT015TCU
Conditions at: TFFF (LE LAMENTIN/MART, MQ) observed 1200 UTC 15 February 2019
Temperature: 27.0°C (81°F)
Dewpoint: 21.0°C (70°F) [RH = 70%]
Pressure (altimeter): 30.00 inches Hg (1016.0 mb)
Winds: from the ESE (120 degrees) at 7 MPH (6 knots; 3.1 m/s)
Visibility: 6 or more miles (10+ km)
Ceiling: at least 12,000 feet AGL
Clouds: few clouds at 2700 feet AGL
scattered clouds at 4200 feet AGL
Weather: no significant weather observed at this time

METAR text: TFFF 151130Z AUTO 12005KT 9999 FEW027 SCT062 25/21 Q1016 TEMPO 4000 SHRA SCT015TCU
Conditions at: TFFF (LE LAMENTIN/MART, MQ) observed 1130 UTC 15 February 2019
Temperature: 25.0°C (77°F)
Dewpoint: 21.0°C (70°F) [RH = 79%]
Pressure (altimeter): 30.00 inches Hg (1016.0 mb)
Winds: from the ESE (120 degrees) at 6 MPH (5 knots; 2.6 m/s)
Visibility: 6 or more miles (10+ km)
Ceiling: at least 12,000 feet AGL
Clouds: few clouds at 2700 feet AGL
scattered clouds at 6200 feet AGL
Weather: no significant weather observed at this time

METAR text: TFFF 151100Z AUTO 12005KT 9999 BKN028 BKN047 BKN062 24/20 Q1016 TEMPO 4000 SHRA SCT015TCU
Conditions at: TFFF (LE LAMENTIN/MART, MQ) observed 1100 UTC 15 February 2019
Temperature: 24.0°C (75°F)
Dewpoint: 20.0°C (68°F) [RH = 78%]
Pressure (altimeter): 30.00 inches Hg (1016.0 mb)
Winds: from the ESE (120 degrees) at 6 MPH (5 knots; 2.6 m/s)
Visibility: 6 or more miles (10+ km)
Ceiling: 2800 feet AGL
Clouds: broken clouds at 2800 feet AGL
broken clouds at 4700 feet AGL
broken clouds at 6200 feet AGL
Weather: no significant weather observed at this time

METAR text: TFFF 151030Z AUTO 13005KT CAVOK 24/20 Q1015 TEMPO 4000 SHRA SCT015TCU
Conditions at: TFFF (LE LAMENTIN/MART, MQ) observed 1030 UTC 15 February 2019
Temperature: 24.0°C (75°F)
Dewpoint: 20.0°C (68°F) [RH = 78%]
Pressure (altimeter): 29.97 inches Hg (1015.0 mb)
Winds: from the SE (130 degrees) at 6 MPH (5 knots; 2.6 m/s)
Visibility: 6 or more miles (10+ km)
Ceiling: ceiling and visibility are OK
Clouds: unknown
Weather: no significant weather observed at this time

METAR text: TFFF 151000Z AUTO 12005KT 9999 SCT026 24/20 Q1015 TEMPO 4000 SHRA SCT015TCU
Conditions at: TFFF (LE LAMENTIN/MART, MQ) observed 1000 UTC 15 February 2019
Temperature: 24.0°C (75°F)
Dewpoint: 20.0°C (68°F) [RH = 78%]
Pressure (altimeter): 29.97 inches Hg (1015.0 mb)
Winds: from the ESE (120 degrees) at 6 MPH (5 knots; 2.6 m/s)
Visibility: 6 or more miles (10+ km)
Ceiling: at least 12,000 feet AGL
Clouds: scattered clouds at 2600 feet AGL
Weather: no significant weather observed at this time

METAR text: TFFF 150930Z AUTO 12007KT 9999 FEW060 24/20 Q1015 TEMPO 4000 SHRA SCT015TCU
Conditions at: TFFF (LE LAMENTIN/MART, MQ) observed 0930 UTC 15 February 2019
Temperature: 24.0°C (75°F)
Dewpoint: 20.0°C (68°F) [RH = 78%]
Pressure (altimeter): 29.97 inches Hg (1015.0 mb)
Winds: from the ESE (120 degrees) at 8 MPH (7 knots; 3.6 m/s)
Visibility: 6 or more miles (10+ km)
Ceiling: at least 12,000 feet AGL
Clouds: few clouds at 6000 feet AGL
Weather: no significant weather observed at this time

METAR text: TFFF 150900Z AUTO 12007KT 9999 FEW027 24/20 Q1015 TEMPO 4000 SHRA SCT015TCU
Conditions at: TFFF (LE LAMENTIN/MART, MQ) observed 0900 UTC 15 February 2019
Temperature: 24.0°C (75°F)
Dewpoint: 20.0°C (68°F) [RH = 78%]
Pressure (altimeter): 29.97 inches Hg (1015.0 mb)
Winds: from the ESE (120 degrees) at 8 MPH (7 knots; 3.6 m/s)
Visibility: 6 or more miles (10+ km)
Ceiling: at least 12,000 feet AGL
Clouds: few clouds at 2700 feet AGL
Weather: no significant weather observed at this time

METAR text: TFFF 150830Z AUTO 12010KT 9999 FEW033 24/20 Q1015 TEMPO 4000 SHRA SCT015TCU
Conditions at: TFFF (LE LAMENTIN/MART, MQ) observed 0830 UTC 15 February 2019
Temperature: 24.0°C (75°F)
Dewpoint: 20.0°C (68°F) [RH = 78%]
Pressure (altimeter): 29.97 inches Hg (1015.0 mb)
Winds: from the ESE (120 degrees) at 12 MPH (10 knots; 5.1 m/s)
Visibility: 6 or more miles (10+ km)
Ceiling: at least 12,000 feet AGL
Clouds: few clouds at 3300 feet AGL
Weather: no significant weather observed at this time

METAR text: TFFF 150800Z AUTO 12009KT 9999 FEW027 24/20 Q1015 TEMPO 4000 SHRA SCT015TCU
Conditions at: TFFF (LE LAMENTIN/MART, MQ) observed 0800 UTC 15 February 2019
Temperature: 24.0°C (75°F)
Dewpoint: 20.0°C (68°F) [RH = 78%]
Pressure (altimeter): 29.97 inches Hg (1015.0 mb)
Winds: from the ESE (120 degrees) at 10 MPH (9 knots; 4.6 m/s)
Visibility: 6 or more miles (10+ km)
Ceiling: at least 12,000 feet AGL
Clouds: few clouds at 2700 feet AGL
Weather: no significant weather observed at this time

METAR text: TFFF 150730Z AUTO 12009KT CAVOK 24/20 Q1014 TEMPO 4000 SHRA SCT015TCU
Conditions at: TFFF (LE LAMENTIN/MART, MQ) observed 0730 UTC 15 February 2019
Temperature: 24.0°C (75°F)
Dewpoint: 20.0°C (68°F) [RH = 78%]
Pressure (altimeter): 29.94 inches Hg (1014.0 mb)
Winds: from the ESE (120 degrees) at 10 MPH (9 knots; 4.6 m/s)
Visibility: 6 or more miles (10+ km)
Ceiling: ceiling and visibility are OK
Clouds: unknown
Weather: no significant weather observed at this time

METAR text: TFFF 150700Z AUTO 11010KT 9999 FEW027 24/20 Q1015 TEMPO 4000 SHRA SCT015TCU
Conditions at: TFFF (LE LAMENTIN/MART, MQ) observed 0700 UTC 15 February 2019
Temperature: 24.0°C (75°F)
Dewpoint: 20.0°C (68°F) [RH = 78%]
Pressure (altimeter): 29.97 inches Hg (1015.0 mb)
Winds: from the ESE (110 degrees) at 12 MPH (10 knots; 5.1 m/s)
Visibility: 6 or more miles (10+ km)
Ceiling: at least 12,000 feet AGL
Clouds: few clouds at 2700 feet AGL
Weather: no significant weather observed at this time

METAR text: TFFF 150630Z AUTO 11010KT 9999 FEW026 SCT054 25/20 Q1015 TEMPO 4000 SHRA SCT015TCU
Conditions at: TFFF (LE LAMENTIN/MART, MQ) observed 0630 UTC 15 February 2019
Temperature: 25.0°C (77°F)
Dewpoint: 20.0°C (68°F) [RH = 74%]
Pressure (altimeter): 29.97 inches Hg (1015.0 mb)
Winds: from the ESE (110 degrees) at 12 MPH (10 knots; 5.1 m/s)
Visibility: 6 or more miles (10+ km)
Ceiling: at least 12,000 feet AGL
Clouds: few clouds at 2600 feet AGL
scattered clouds at 5400 feet AGL
Weather: no significant weather observed at this time

METAR text: TFFF 150600Z AUTO 11012KT 9999 FEW026 25/21 Q1015 TEMPO 4000 SHRA SCT015TCU
Conditions at: TFFF (LE LAMENTIN/MART, MQ) observed 0600 UTC 15 February 2019
Temperature: 25.0°C (77°F)
Dewpoint: 21.0°C (70°F) [RH = 79%]
Pressure (altimeter): 29.97 inches Hg (1015.0 mb)
Winds: from the ESE (110 degrees) at 14 MPH (12 knots; 6.2 m/s)
Visibility: 6 or more miles (10+ km)
Ceiling: at least 12,000 feet AGL
Clouds: few clouds at 2600 feet AGL
Weather: no significant weather observed at this time

METAR text: TFFF 150530Z AUTO 11012KT 9999 FEW027 25/20 Q1015 TEMPO 4000 SHRA BKN012TCU
Conditions at: TFFF (LE LAMENTIN/MART, MQ) observed 0530 UTC 15 February 2019
Temperature: 25.0°C (77°F)
Dewpoint: 20.0°C (68°F) [RH = 74%]
Pressure (altimeter): 29.97 inches Hg (1015.0 mb)
Winds: from the ESE (110 degrees) at 14 MPH (12 knots; 6.2 m/s)
Visibility: 6 or more miles (10+ km)
Ceiling: at least 12,000 feet AGL
Clouds: few clouds at 2700 feet AGL
Weather: no significant weather observed at this time

METAR text: TFFF 150500Z AUTO 11012KT 9999 SCT027 SCT038 BKN056 25/21 Q1016 TEMPO 4000 SHRA BKN012TCU
Conditions at: TFFF (LE LAMENTIN/MART, MQ) observed 0500 UTC 15 February 2019
Temperature: 25.0°C (77°F)
Dewpoint: 21.0°C (70°F) [RH = 79%]
Pressure (altimeter): 30.00 inches Hg (1016.0 mb)
Winds: from the ESE (110 degrees) at 14 MPH (12 knots; 6.2 m/s)
Visibility: 6 or more miles (10+ km)
Ceiling: 5600 feet AGL
Clouds: scattered clouds at 2700 feet AGL
scattered clouds at 3800 feet AGL
broken clouds at 5600 feet AGL
Weather: no significant weather observed at this time

METAR text: TFFF 150430Z AUTO 12011KT 9999 FEW025 SCT049 25/21 Q1016 TEMPO 4000 SHRA BKN012TCU
Conditions at: TFFF (LE LAMENTIN/MART, MQ) observed 0430 UTC 15 February 2019
Temperature: 25.0°C (77°F)
Dewpoint: 21.0°C (70°F) [RH = 79%]
Pressure (altimeter): 30.00 inches Hg (1016.0 mb)
Winds: from the ESE (120 degrees) at 13 MPH (11 knots; 5.7 m/s)
Visibility: 6 or more miles (10+ km)
Ceiling: at least 12,000 feet AGL
Clouds: few clouds at 2500 feet AGL
scattered clouds at 4900 feet AGL
Weather: no significant weather observed at this time

METAR text: TFFF 150400Z AUTO 11010KT 9999 FEW026 25/21 Q1016 TEMPO 4000 SHRA BKN012TCU
Conditions at: TFFF (LE LAMENTIN/MART, MQ) observed 0400 UTC 15 February 2019
Temperature: 25.0°C (77°F)
Dewpoint: 21.0°C (70°F) [RH = 79%]
Pressure (altimeter): 30.00 inches Hg (1016.0 mb)
Winds: from the ESE (110 degrees) at 12 MPH (10 knots; 5.1 m/s)
Visibility: 6 or more miles (10+ km)
Ceiling: at least 12,000 feet AGL
Clouds: few clouds at 2600 feet AGL
Weather: no significant weather observed at this time

METAR text: TFFF 150330Z AUTO 11010KT 9999 FEW022 24/21 Q1016
Conditions at: TFFF (LE LAMENTIN/MART, MQ) observed 0330 UTC 15 February 2019
Temperature: 24.0°C (75°F)
Dewpoint: 21.0°C (70°F) [RH = 83%]
Pressure (altimeter): 30.00 inches Hg (1016.0 mb)
Winds: from the ESE (110 degrees) at 12 MPH (10 knots; 5.1 m/s)
Visibility: 6 or more miles (10+ km)
Ceiling: at least 12,000 feet AGL
Clouds: few clouds at 2200 feet AGL
Weather: no significant weather observed at this time

METAR text: TFFF 150300Z AUTO 11009KT 9999 FEW027 24/21 Q1016 TEMPO 4000 SHRA BKN012TCU
Conditions at: TFFF (LE LAMENTIN/MART, MQ) observed 0300 UTC 15 February 2019
Temperature: 24.0°C (75°F)
Dewpoint: 21.0°C (70°F) [RH = 83%]
Pressure (altimeter): 30.00 inches Hg (1016.0 mb)
Winds: from the ESE (110 degrees) at 10 MPH (9 knots; 4.6 m/s)
Visibility: 6 or more miles (10+ km)
Ceiling: at least 12,000 feet AGL
Clouds: few clouds at 2700 feet AGL
Weather: no significant weather observed at this time

METAR text: TFFF 150230Z AUTO 11010KT 9999 FEW026 25/20 Q1017 TEMPO 4000 SHRA BKN012TCU
Conditions at: TFFF (LE LAMENTIN/MART, MQ) observed 0230 UTC 15 February 2019
Temperature: 25.0°C (77°F)
Dewpoint: 20.0°C (68°F) [RH = 74%]
Pressure (altimeter): 30.03 inches Hg (1017.0 mb)
Winds: from the ESE (110 degrees) at 12 MPH (10 knots; 5.1 m/s)
Visibility: 6 or more miles (10+ km)
Ceiling: at least 12,000 feet AGL
Clouds: few clouds at 2600 feet AGL
Weather: no significant weather observed at this time

METAR text: TFFF 150200Z AUTO 11010KT 9999 FEW027 25/20 Q1016 TEMPO 4000 SHRA BKN012TCU
Conditions at: TFFF (LE LAMENTIN/MART, MQ) observed 0200 UTC 15 February 2019
Temperature: 25.0°C (77°F)
Dewpoint: 20.0°C (68°F) [RH = 74%]
Pressure (altimeter): 30.00 inches Hg (1016.0 mb)
Winds: from the ESE (110 degrees) at 12 MPH (10 knots; 5.1 m/s)
Visibility: 6 or more miles (10+ km)
Ceiling: at least 12,000 feet AGL
Clouds: few clouds at 2700 feet AGL
Weather: no significant weather observed at this time

METAR text: TFFF 150130Z AUTO 11011KT CAVOK 25/20 Q1016 TEMPO 4000 SHRA BKN012TCU
Conditions at: TFFF (LE LAMENTIN/MART, MQ) observed 0130 UTC 15 February 2019
Temperature: 25.0°C (77°F)
Dewpoint: 20.0°C (68°F) [RH = 74%]
Pressure (altimeter): 30.00 inches Hg (1016.0 mb)
Winds: from the ESE (110 degrees) at 13 MPH (11 knots; 5.7 m/s)
Visibility: 6 or more miles (10+ km)
Ceiling: ceiling and visibility are OK
Clouds: unknown
Weather: no significant weather observed at this time

METAR text: TFFF 150100Z AUTO 12009KT 9999 FEW027 25/20 Q1016 NOSIG
Conditions at: TFFF (LE LAMENTIN/MART, MQ) observed 0100 UTC 15 February 2019
Temperature: 25.0°C (77°F)
Dewpoint: 20.0°C (68°F) [RH = 74%]
Pressure (altimeter): 30.00 inches Hg (1016.0 mb)
Winds: from the ESE (120 degrees) at 10 MPH (9 knots; 4.6 m/s)
Visibility: 6 or more miles (10+ km)
Ceiling: at least 12,000 feet AGL
Clouds: few clouds at 2700 feet AGL
Weather: no significant weather observed at this time

METAR text: TFFF 150030Z AUTO 12008KT 9999 FEW030 25/20 Q1016 NOSIG
Conditions at: TFFF (LE LAMENTIN/MART, MQ) observed 0030 UTC 15 February 2019
Temperature: 25.0°C (77°F)
Dewpoint: 20.0°C (68°F) [RH = 74%]
Pressure (altimeter): 30.00 inches Hg (1016.0 mb)
Winds: from the ESE (120 degrees) at 9 MPH (8 knots; 4.1 m/s)
Visibility: 6 or more miles (10+ km)
Ceiling: at least 12,000 feet AGL
Clouds: few clouds at 3000 feet AGL
Weather: no significant weather observed at this time

METAR text: TFFF 150000Z AUTO 12009KT 9999 FEW031 25/20 Q1016 NOSIG
Conditions at: TFFF (LE LAMENTIN/MART, MQ) observed 0000 UTC 15 February 2019
Temperature: 25.0°C (77°F)
Dewpoint: 20.0°C (68°F) [RH = 74%]
Pressure (altimeter): 30.00 inches Hg (1016.0 mb)
Winds: from the ESE (120 degrees) at 10 MPH (9 knots; 4.6 m/s)
Visibility: 6 or more miles (10+ km)
Ceiling: at least 12,000 feet AGL
Clouds: few clouds at 3100 feet AGL
Weather: no significant weather observed at this time

METAR text: TFFF 142330Z AUTO 12010KT 9999 FEW028 25/20 Q1015 NOSIG
Conditions at: TFFF (LE LAMENTIN/MART, MQ) observed 2330 UTC 14 February 2019
Temperature: 25.0°C (77°F)
Dewpoint: 20.0°C (68°F) [RH = 74%]
Pressure (altimeter): 29.97 inches Hg (1015.0 mb)
Winds: from the ESE (120 degrees) at 12 MPH (10 knots; 5.1 m/s)
Visibility: 6 or more miles (10+ km)
Ceiling: at least 12,000 feet AGL
Clouds: few clouds at 2800 feet AGL
Weather: no significant weather observed at this time

METAR text: TFFF 142300Z AUTO 12009KT 9999 FEW030 SCT036 25/20 Q1015 NOSIG
Conditions at: TFFF (LE LAMENTIN/MART, MQ) observed 2300 UTC 14 February 2019
Temperature: 25.0°C (77°F)
Dewpoint: 20.0°C (68°F) [RH = 74%]
Pressure (altimeter): 29.97 inches Hg (1015.0 mb)
Winds: from the ESE (120 degrees) at 10 MPH (9 knots; 4.6 m/s)
Visibility: 6 or more miles (10+ km)
Ceiling: at least 12,000 feet AGL
Clouds: few clouds at 3000 feet AGL
scattered clouds at 3600 feet AGL
Weather: no significant weather observed at this time

METAR text: TFFF 142230Z AUTO 13009KT 9999 SCT031 BKN039 BKN046 25/20 Q1015 NOSIG
Conditions at: TFFF (LE LAMENTIN/MART, MQ) observed 2230 UTC 14 February 2019
Temperature: 25.0°C (77°F)
Dewpoint: 20.0°C (68°F) [RH = 74%]
Pressure (altimeter): 29.97 inches Hg (1015.0 mb)
Winds: from the SE (130 degrees) at 10 MPH (9 knots; 4.6 m/s)
Visibility: 6 or more miles (10+ km)
Ceiling: 3900 feet AGL
Clouds: scattered clouds at 3100 feet AGL
broken clouds at 3900 feet AGL
broken clouds at 4600 feet AGL
Weather: no significant weather observed at this time

METAR text: TFFF 142200Z AUTO 13012KT 9999 FEW033 26/20 Q1015 NOSIG
Conditions at: TFFF (LE LAMENTIN/MART, MQ) observed 2200 UTC 14 February 2019
Temperature: 26.0°C (79°F)
Dewpoint: 20.0°C (68°F) [RH = 70%]
Pressure (altimeter): 29.97 inches Hg (1015.0 mb)
Winds: from the SE (130 degrees) at 14 MPH (12 knots; 6.2 m/s)
Visibility: 6 or more miles (10+ km)
Ceiling: at least 12,000 feet AGL
Clouds: few clouds at 3300 feet AGL
Weather: no significant weather observed at this time

METAR text: TFFF 142130Z AUTO 12014KT 9999 FEW034 SCT042 27/20 Q1015 NOSIG
Conditions at: TFFF (LE LAMENTIN/MART, MQ) observed 2130 UTC 14 February 2019
Temperature: 27.0°C (81°F)
Dewpoint: 20.0°C (68°F) [RH = 66%]
Pressure (altimeter): 29.97 inches Hg (1015.0 mb)
Winds: from the ESE (120 degrees) at 16 MPH (14 knots; 7.2 m/s)
Visibility: 6 or more miles (10+ km)
Ceiling: at least 12,000 feet AGL
Clouds: few clouds at 3400 feet AGL
scattered clouds at 4200 feet AGL
Weather: no significant weather observed at this time

METAR text: TFFF 142100Z AUTO 12015KT 9999 SCT033 BKN039 BKN046 27/19 Q1015 NOSIG
Conditions at: TFFF (LE LAMENTIN/MART, MQ) observed 2100 UTC 14 February 2019
Temperature: 27.0°C (81°F)
Dewpoint: 19.0°C (66°F) [RH = 62%]
Pressure (altimeter): 29.97 inches Hg (1015.0 mb)
Winds: from the ESE (120 degrees) at 17 MPH (15 knots; 7.7 m/s)
Visibility: 6 or more miles (10+ km)
Ceiling: 3900 feet AGL
Clouds: scattered clouds at 3300 feet AGL
broken clouds at 3900 feet AGL
broken clouds at 4600 feet AGL
Weather: no significant weather observed at this time

METAR text: TFFF 142030Z AUTO 13015KT 9999 SCT035 BKN045 BKN052 27/20 Q1015 NOSIG
Conditions at: TFFF (LE LAMENTIN/MART, MQ) observed 2030 UTC 14 February 2019
Temperature: 27.0°C (81°F)
Dewpoint: 20.0°C (68°F) [RH = 66%]
Pressure (altimeter): 29.97 inches Hg (1015.0 mb)
Winds: from the SE (130 degrees) at 17 MPH (15 knots; 7.7 m/s)
Visibility: 6 or more miles (10+ km)
Ceiling: 4500 feet AGL
Clouds: scattered clouds at 3500 feet AGL
broken clouds at 4500 feet AGL
broken clouds at 5200 feet AGL
Weather: no significant weather observed at this time

METAR text: TFFF 142000Z AUTO 12015KT 9999 SCT032 BKN038 BKN045 28/20 Q1015 NOSIG
Conditions at: TFFF (LE LAMENTIN/MART, MQ) observed 2000 UTC 14 February 2019
Temperature: 28.0°C (82°F)
Dewpoint: 20.0°C (68°F) [RH = 62%]
Pressure (altimeter): 29.97 inches Hg (1015.0 mb)
Winds: from the ESE (120 degrees) at 17 MPH (15 knots; 7.7 m/s)
Visibility: 6 or more miles (10+ km)
Ceiling: 3800 feet AGL
Clouds: scattered clouds at 3200 feet AGL
broken clouds at 3800 feet AGL
broken clouds at 4500 feet AGL
Weather: no significant weather observed at this time

METAR text: TFFF 141930Z AUTO 13016KT 9999 SCT034 BKN043 BKN052 28/20 Q1015 NOSIG
Conditions at: TFFF (LE LAMENTIN/MART, MQ) observed 1930 UTC 14 February 2019
Temperature: 28.0°C (82°F)
Dewpoint: 20.0°C (68°F) [RH = 62%]
Pressure (altimeter): 29.97 inches Hg (1015.0 mb)
Winds: from the SE (130 degrees) at 18 MPH (16 knots; 8.2 m/s)
Visibility: 6 or more miles (10+ km)
Ceiling: 4300 feet AGL
Clouds: scattered clouds at 3400 feet AGL
broken clouds at 4300 feet AGL
broken clouds at 5200 feet AGL
Weather: no significant weather observed at this time

METAR text: TFFF 141900Z AUTO 12016KT 9999 SCT036 BKN042 BKN050 28/20 Q1015 TEMPO 10015G25KT
Conditions at: TFFF (LE LAMENTIN/MART, MQ) observed 1900 UTC 14 February 2019
Temperature: 28.0°C (82°F)
Dewpoint: 20.0°C (68°F) [RH = 62%]
Pressure (altimeter): 29.97 inches Hg (1015.0 mb)
Winds: from the ESE (120 degrees) at 18 MPH (16 knots; 8.2 m/s)
Visibility: 6 or more miles (10+ km)
Ceiling: 4200 feet AGL
Clouds: scattered clouds at 3600 feet AGL
broken clouds at 4200 feet AGL
broken clouds at 5000 feet AGL
Weather: no significant weather observed at this time

METAR text: TFFF 141830Z AUTO 12018KT 9999 SCT034 BKN040 BKN046 29/20 Q1015 TEMPO 10015G25KT
Conditions at: TFFF (LE LAMENTIN/MART, MQ) observed 1830 UTC 14 February 2019
Temperature: 29.0°C (84°F)
Dewpoint: 20.0°C (68°F) [RH = 58%]
Pressure (altimeter): 29.97 inches Hg (1015.0 mb)
Winds: from the ESE (120 degrees) at 21 MPH (18 knots; 9.3 m/s)
Visibility: 6 or more miles (10+ km)
Ceiling: 4000 feet AGL
Clouds: scattered clouds at 3400 feet AGL
broken clouds at 4000 feet AGL
broken clouds at 4600 feet AGL
Weather: no significant weather observed at this time

METAR text: TFFF 141800Z AUTO 11017KT 9999 BKN035 BKN042 28/21 Q1015 TEMPO 10015G25KT
Conditions at: TFFF (LE LAMENTIN/MART, MQ) observed 1800 UTC 14 February 2019
Temperature: 28.0°C (82°F)
Dewpoint: 21.0°C (70°F) [RH = 66%]
Pressure (altimeter): 29.97 inches Hg (1015.0 mb)
Winds: from the ESE (110 degrees) at 20 MPH (17 knots; 8.7 m/s)
Visibility: 6 or more miles (10+ km)
Ceiling: 3500 feet AGL
Clouds: broken clouds at 3500 feet AGL
broken clouds at 4200 feet AGL
Weather: no significant weather observed at this time

METAR text: TFFF 141730Z AUTO 12018KT 9999 SCT037 BKN045 29/20 Q1016 TEMPO 10015G25KT
Conditions at: TFFF (LE LAMENTIN/MART, MQ) observed 1730 UTC 14 February 2019
Temperature: 29.0°C (84°F)
Dewpoint: 20.0°C (68°F) [RH = 58%]
Pressure (altimeter): 30.00 inches Hg (1016.0 mb)
Winds: from the ESE (120 degrees) at 21 MPH (18 knots; 9.3 m/s)
Visibility: 6 or more miles (10+ km)
Ceiling: 4500 feet AGL
Clouds: scattered clouds at 3700 feet AGL
broken clouds at 4500 feet AGL
Weather: no significant weather observed at this time

METAR text: TFFF 141700Z AUTO 12018KT 9999 FEW037 SCT043 BKN050 30/20 Q1016 TEMPO 10015G25KT
Conditions at: TFFF (LE LAMENTIN/MART, MQ) observed 1700 UTC 14 February 2019
Temperature: 30.0°C (86°F)
Dewpoint: 20.0°C (68°F) [RH = 55%]
Pressure (altimeter): 30.00 inches Hg (1016.0 mb)
Winds: from the ESE (120 degrees) at 21 MPH (18 knots; 9.3 m/s)
Visibility: 6 or more miles (10+ km)
Ceiling: 5000 feet AGL
Clouds: few clouds at 3700 feet AGL
scattered clouds at 4300 feet AGL
broken clouds at 5000 feet AGL
Weather: no significant weather observed at this time

METAR text: TFFF 141630Z AUTO 12019KT 9999 FEW034 BKN040 BKN046 29/21 Q1016 TEMPO 10015G25KT
Conditions at: TFFF (LE LAMENTIN/MART, MQ) observed 1630 UTC 14 February 2019
Temperature: 29.0°C (84°F)
Dewpoint: 21.0°C (70°F) [RH = 62%]
Pressure (altimeter): 30.00 inches Hg (1016.0 mb)
Winds: from the ESE (120 degrees) at 22 MPH (19 knots; 9.8 m/s)
Visibility: 6 or more miles (10+ km)
Ceiling: 4000 feet AGL
Clouds: few clouds at 3400 feet AGL
broken clouds at 4000 feet AGL
broken clouds at 4600 feet AGL
Weather: no significant weather observed at this time

METAR text: TFFF 141600Z AUTO 12019KT 9999 BKN033 BKN042 BKN050 29/21 Q1017 TEMPO 10015G25KT
Conditions at: TFFF (LE LAMENTIN/MART, MQ) observed 1600 UTC 14 February 2019
Temperature: 29.0°C (84°F)
Dewpoint: 21.0°C (70°F) [RH = 62%]
Pressure (altimeter): 30.03 inches Hg (1017.0 mb)
Winds: from the ESE (120 degrees) at 22 MPH (19 knots; 9.8 m/s)
Visibility: 6 or more miles (10+ km)
Ceiling: 3300 feet AGL
Clouds: broken clouds at 3300 feet AGL
broken clouds at 4200 feet AGL
broken clouds at 5000 feet AGL
Weather: no significant weather observed at this time

METAR text: TFFF 141530Z AUTO 12018KT 9999 BKN035 BKN042 28/20 Q1017 TEMPO 10015G25KT
Conditions at: TFFF (LE LAMENTIN/MART, MQ) observed 1530 UTC 14 February 2019
Temperature: 28.0°C (82°F)
Dewpoint: 20.0°C (68°F) [RH = 62%]
Pressure (altimeter): 30.03 inches Hg (1017.0 mb)
Winds: from the ESE (120 degrees) at 21 MPH (18 knots; 9.3 m/s)
Visibility: 6 or more miles (10+ km)
Ceiling: 3500 feet AGL
Clouds: broken clouds at 3500 feet AGL
broken clouds at 4200 feet AGL
Weather: no significant weather observed at this time

METAR text: TFFF 141500Z AUTO 12019KT 9999 BKN036 BKN042 28/20 Q1017 TEMPO 10015G25KT
Conditions at: TFFF (LE LAMENTIN/MART, MQ) observed 1500 UTC 14 February 2019
Temperature: 28.0°C (82°F)
Dewpoint: 20.0°C (68°F) [RH = 62%]
Pressure (altimeter): 30.03 inches Hg (1017.0 mb)
Winds: from the ESE (120 degrees) at 22 MPH (19 knots; 9.8 m/s)
Visibility: 6 or more miles (10+ km)
Ceiling: 3600 feet AGL
Clouds: broken clouds at 3600 feet AGL
broken clouds at 4200 feet AGL
Weather: no significant weather observed at this time

METAR text: TFFF 141430Z AUTO 12020KT 9999 OVC036 29/21 Q1018 TEMPO 10015G25KT
Conditions at: TFFF (LE LAMENTIN/MART, MQ) observed 1430 UTC 14 February 2019
Temperature: 29.0°C (84°F)
Dewpoint: 21.0°C (70°F) [RH = 62%]
Pressure (altimeter): 30.06 inches Hg (1018.0 mb)
Winds: from the ESE (120 degrees) at 23 MPH (20 knots; 10.3 m/s)
Visibility: 6 or more miles (10+ km)
Ceiling: 3600 feet AGL
Clouds: overcast cloud deck at 3600 feet AGL
Weather: no significant weather observed at this time

METAR text: TFFF 141400Z AUTO 12018KT 9999 BKN035 BKN042 28/20 Q1018 TEMPO 10015G25KT
Conditions at: TFFF (LE LAMENTIN/MART, MQ) observed 1400 UTC 14 February 2019
Temperature: 28.0°C (82°F)
Dewpoint: 20.0°C (68°F) [RH = 62%]
Pressure (altimeter): 30.06 inches Hg (1018.0 mb)
Winds: from the ESE (120 degrees) at 21 MPH (18 knots; 9.3 m/s)
Visibility: 6 or more miles (10+ km)
Ceiling: 3500 feet AGL
Clouds: broken clouds at 3500 feet AGL
broken clouds at 4200 feet AGL
Weather: no significant weather observed at this time

METAR text: TFFF 141330Z AUTO 13018KT 9999 BKN035 BKN042 BKN052 28/21 Q1018 TEMPO 10015G25KT
Conditions at: TFFF (LE LAMENTIN/MART, MQ) observed 1330 UTC 14 February 2019
Temperature: 28.0°C (82°F)
Dewpoint: 21.0°C (70°F) [RH = 66%]
Pressure (altimeter): 30.06 inches Hg (1018.0 mb)
Winds: from the SE (130 degrees) at 21 MPH (18 knots; 9.3 m/s)
Visibility: 6 or more miles (10+ km)
Ceiling: 3500 feet AGL
Clouds: broken clouds at 3500 feet AGL
broken clouds at 4200 feet AGL
broken clouds at 5200 feet AGL
Weather: no significant weather observed at this time

METAR text: TFFF 141300Z AUTO 13015KT 9999 BKN032 27/20 Q1018 TEMPO 10015G25KT
Conditions at: TFFF (LE LAMENTIN/MART, MQ) observed 1300 UTC 14 February 2019
Temperature: 27.0°C (81°F)
Dewpoint: 20.0°C (68°F) [RH = 66%]
Pressure (altimeter): 30.06 inches Hg (1018.0 mb)
Winds: from the SE (130 degrees) at 17 MPH (15 knots; 7.7 m/s)
Visibility: 6 or more miles (10+ km)
Ceiling: 3200 feet AGL
Clouds: broken clouds at 3200 feet AGL
Weather: no significant weather observed at this time

METAR text: TFFF 141230Z AUTO 13010KT 090V160 9999 SCT027 BKN032 27/21 Q1018 TEMPO 10015G25KT
Conditions at: TFFF (LE LAMENTIN/MART, MQ) observed 1230 UTC 14 February 2019
Temperature: 27.0°C (81°F)
Dewpoint: 21.0°C (70°F) [RH = 70%]
Pressure (altimeter): 30.06 inches Hg (1018.0 mb)
Winds: from the SE (130 degrees) at 12 MPH (10 knots; 5.1 m/s)
Visibility: 6 or more miles (10+ km)
Ceiling: 3200 feet AGL
Clouds: scattered clouds at 2700 feet AGL
broken clouds at 3200 feet AGL
Weather: no significant weather observed at this time

METAR text: TFFF 141200Z AUTO 12012KT 9999 SCT025 SCT031 BKN056 26/21 Q1017
Conditions at: TFFF (LE LAMENTIN/MART, MQ) observed 1200 UTC 14 February 2019
Temperature: 26.0°C (79°F)
Dewpoint: 21.0°C (70°F) [RH = 74%]
Pressure (altimeter): 30.03 inches Hg (1017.0 mb)
Winds: from the ESE (120 degrees) at 14 MPH (12 knots; 6.2 m/s)
Visibility: 6 or more miles (10+ km)
Ceiling: 5600 feet AGL
Clouds: scattered clouds at 2500 feet AGL
scattered clouds at 3100 feet AGL
broken clouds at 5600 feet AGL
Weather: no significant weather observed at this time

Forecast for: TFFF (LE LAMENTIN/MART, MQ)
Text: TAF TFFF 152300Z 1600/1624 12010KT 9999 SCT030
Forecast period: 0000 UTC 16 February 2019 to 0000 UTC 17 February 2019
Forecast type: FROM: standard forecast or significant change
Winds: from the ESE (120 degrees) at 12 MPH (10 knots; 5.1 m/s)
Visibility: 6 or more miles 10+ km)
Ceiling: at least 12,000 feet AGL
Clouds: scattered clouds at 3000 feet AGL
Weather: no significant weather forecast for this period
Text: PROB30
Forecast period: 1100 to 1500 UTC 16 February 2019
Forecast type: TEMPORARY: The following changes expected for less than half the time period
Visibility: 2.49 miles (4.01 km)
Ceiling: at least 12,000 feet AGL
Clouds: scattered clouds at 1800 feet AGL
Weather: SHRA  (rain showers)